sensor_id;sensor_type;location;lat;lon;timestamp;P1;durP1;ratioP1;P2;durP2;ratioP2
52942;SDS011;38809;53.300;6.614;2023-08-01T00:00:00;4.65;;;2.38;;
52942;SDS011;38809;53.300;6.614;2023-08-01T00:02:28;7.25;;;3.03;;
52942;SDS011;38809;53.300;6.614;2023-08-01T00:04:54;6.70;;;3.20;;
52942;SDS011;38809;53.300;6.614;2023-08-01T00:07:19;8.00;;;3.10;;
52942;SDS011;38809;53.300;6.614;2023-08-01T00:09:45;10.27;;;3.00;;
52942;SDS011;38809;53.300;6.614;2023-08-01T00:12:11;8.32;;;3.13;;
52942;SDS011;38809;53.300;6.614;2023-08-01T00:14:37;9.57;;;3.67;;
52942;SDS011;38809;53.300;6.614;2023-08-01T00:17:02;8.70;;;3.00;;
52942;SDS011;38809;53.300;6.614;2023-08-01T00:19:28;9.25;;;3.20;;
52942;SDS011;38809;53.300;6.614;2023-08-01T00:21:54;7.47;;;2.70;;
52942;SDS011;38809;53.300;6.614;2023-08-01T00:24:19;6.57;;;3.28;;
52942;SDS011;38809;53.300;6.614;2023-08-01T00:26:45;6.65;;;2.55;;
52942;SDS011;38809;53.300;6.614;2023-08-01T00:31:37;6.60;;;2.97;;
52942;SDS011;38809;53.300;6.614;2023-08-01T00:34:02;9.02;;;3.30;;
52942;SDS011;38809;53.300;6.614;2023-08-01T00:36:28;8.98;;;3.53;;
52942;SDS011;38809;53.300;6.614;2023-08-01T00:38:54;5.93;;;3.10;;
52942;SDS011;38809;53.300;6.614;2023-08-01T00:41:19;8.35;;;2.78;;
52942;SDS011;38809;53.300;6.614;2023-08-01T00:43:45;7.90;;;2.53;;
52942;SDS011;38809;53.300;6.614;2023-08-01T00:46:11;6.20;;;2.55;;
52942;SDS011;38809;53.300;6.614;2023-08-01T00:48:36;5.97;;;2.92;;
52942;SDS011;38809;53.300;6.614;2023-08-01T00:51:05;6.60;;;3.03;;
52942;SDS011;38809;53.300;6.614;2023-08-01T00:53:34;9.00;;;3.30;;
52942;SDS011;38809;53.300;6.614;2023-08-01T00:56:00;4.70;;;2.83;;
52942;SDS011;38809;53.300;6.614;2023-08-01T00:58:26;5.80;;;2.65;;
52942;SDS011;38809;53.300;6.614;2023-08-01T01:00:51;5.80;;;2.88;;
52942;SDS011;38809;53.300;6.614;2023-08-01T01:03:17;7.60;;;3.67;;
52942;SDS011;38809;53.300;6.614;2023-08-01T01:08:21;5.25;;;2.78;;
52942;SDS011;38809;53.300;6.614;2023-08-01T01:10:47;5.78;;;2.58;;
52942;SDS011;38809;53.300;6.614;2023-08-01T01:13:12;5.20;;;2.45;;
52942;SDS011;38809;53.300;6.614;2023-08-01T01:15:38;8.48;;;3.20;;
52942;SDS011;38809;53.300;6.614;2023-08-01T01:18:04;5.93;;;3.05;;
52942;SDS011;38809;53.300;6.614;2023-08-01T01:20:32;4.30;;;2.70;;
52942;SDS011;38809;53.300;6.614;2023-08-01T01:23:01;5.03;;;2.47;;
52942;SDS011;38809;53.300;6.614;2023-08-01T01:25:30;6.63;;;3.30;;
52942;SDS011;38809;53.300;6.614;2023-08-01T01:27:58;3.80;;;2.42;;
52942;SDS011;38809;53.300;6.614;2023-08-01T01:30:25;6.68;;;3.25;;
52942;SDS011;38809;53.300;6.614;2023-08-01T01:32:53;7.07;;;2.70;;
52942;SDS011;38809;53.300;6.614;2023-08-01T01:35:19;8.32;;;2.63;;
52942;SDS011;38809;53.300;6.614;2023-08-01T01:37:44;5.85;;;2.80;;
52942;SDS011;38809;53.300;6.614;2023-08-01T01:40:10;4.70;;;2.60;;
52942;SDS011;38809;53.300;6.614;2023-08-01T01:42:36;5.18;;;2.50;;
52942;SDS011;38809;53.300;6.614;2023-08-01T01:45:02;5.88;;;2.72;;
52942;SDS011;38809;53.300;6.614;2023-08-01T01:47:28;5.13;;;2.80;;
52942;SDS011;38809;53.300;6.614;2023-08-01T01:49:54;6.50;;;2.92;;
52942;SDS011;38809;53.300;6.614;2023-08-01T01:52:19;5.93;;;2.55;;
52942;SDS011;38809;53.300;6.614;2023-08-01T01:54:45;5.22;;;2.72;;
52942;SDS011;38809;53.300;6.614;2023-08-01T01:57:10;4.57;;;2.35;;
52942;SDS011;38809;53.300;6.614;2023-08-01T01:59:36;5.75;;;2.58;;
52942;SDS011;38809;53.300;6.614;2023-08-01T02:02:02;6.35;;;2.88;;
52942;SDS011;38809;53.300;6.614;2023-08-01T02:04:29;5.25;;;2.97;;
52942;SDS011;38809;53.300;6.614;2023-08-01T02:06:55;4.63;;;2.30;;
52942;SDS011;38809;53.300;6.614;2023-08-01T02:09:21;5.32;;;2.55;;
52942;SDS011;38809;53.300;6.614;2023-08-01T02:11:46;5.40;;;2.80;;
52942;SDS011;38809;53.300;6.614;2023-08-01T02:14:13;5.93;;;3.28;;
52942;SDS011;38809;53.300;6.614;2023-08-01T02:19:04;3.90;;;2.20;;
52942;SDS011;38809;53.300;6.614;2023-08-01T02:21:30;5.03;;;2.17;;
52942;SDS011;38809;53.300;6.614;2023-08-01T02:23:55;4.15;;;2.38;;
52942;SDS011;38809;53.300;6.614;2023-08-01T02:26:21;4.55;;;2.13;;
52942;SDS011;38809;53.300;6.614;2023-08-01T02:28:49;5.30;;;2.58;;
52942;SDS011;38809;53.300;6.614;2023-08-01T02:31:15;5.22;;;2.70;;
52942;SDS011;38809;53.300;6.614;2023-08-01T02:33:41;5.38;;;2.42;;
52942;SDS011;38809;53.300;6.614;2023-08-01T02:36:07;5.40;;;2.70;;
52942;SDS011;38809;53.300;6.614;2023-08-01T02:38:32;7.40;;;3.28;;
52942;SDS011;38809;53.300;6.614;2023-08-01T02:40:58;3.97;;;2.30;;
52942;SDS011;38809;53.300;6.614;2023-08-01T02:43:24;5.57;;;2.55;;
52942;SDS011;38809;53.300;6.614;2023-08-01T02:45:50;4.78;;;2.65;;
52942;SDS011;38809;53.300;6.614;2023-08-01T02:48:15;4.05;;;2.35;;
52942;SDS011;38809;53.300;6.614;2023-08-01T02:50:41;4.53;;;2.00;;
52942;SDS011;38809;53.300;6.614;2023-08-01T02:53:07;4.53;;;2.22;;
52942;SDS011;38809;53.300;6.614;2023-08-01T02:55:33;3.78;;;2.25;;
52942;SDS011;38809;53.300;6.614;2023-08-01T02:57:59;6.57;;;2.53;;
52942;SDS011;38809;53.300;6.614;2023-08-01T03:00:24;4.78;;;2.42;;
52942;SDS011;38809;53.300;6.614;2023-08-01T03:02:50;5.82;;;2.80;;
52942;SDS011;38809;53.300;6.614;2023-08-01T03:05:17;6.40;;;2.80;;
52942;SDS011;38809;53.300;6.614;2023-08-01T03:07:42;5.03;;;2.63;;
52942;SDS011;38809;53.300;6.614;2023-08-01T03:10:08;5.13;;;2.72;;
52942;SDS011;38809;53.300;6.614;2023-08-01T03:12:36;5.85;;;2.80;;
52942;SDS011;38809;53.300;6.614;2023-08-01T03:15:02;5.15;;;2.50;;
52942;SDS011;38809;53.300;6.614;2023-08-01T03:17:28;5.60;;;2.83;;
52942;SDS011;38809;53.300;6.614;2023-08-01T03:19:54;4.95;;;2.38;;
52942;SDS011;38809;53.300;6.614;2023-08-01T03:22:20;7.30;;;2.55;;
52942;SDS011;38809;53.300;6.614;2023-08-01T03:24:45;4.85;;;2.25;;
52942;SDS011;38809;53.300;6.614;2023-08-01T03:27:11;7.25;;;2.70;;
52942;SDS011;38809;53.300;6.614;2023-08-01T03:29:37;4.13;;;2.33;;
52942;SDS011;38809;53.300;6.614;2023-08-01T03:32:03;6.53;;;2.85;;
52942;SDS011;38809;53.300;6.614;2023-08-01T03:34:29;5.25;;;2.72;;
52942;SDS011;38809;53.300;6.614;2023-08-01T03:36:55;4.72;;;2.30;;
52942;SDS011;38809;53.300;6.614;2023-08-01T03:39:21;4.85;;;2.55;;
52942;SDS011;38809;53.300;6.614;2023-08-01T03:41:46;6.32;;;2.45;;
52942;SDS011;38809;53.300;6.614;2023-08-01T03:44:12;6.03;;;2.28;;
52942;SDS011;38809;53.300;6.614;2023-08-01T03:46:38;5.05;;;2.28;;
52942;SDS011;38809;53.300;6.614;2023-08-01T03:49:04;6.75;;;2.58;;
52942;SDS011;38809;53.300;6.614;2023-08-01T03:51:29;5.13;;;2.03;;
52942;SDS011;38809;53.300;6.614;2023-08-01T03:53:55;4.78;;;2.30;;
52942;SDS011;38809;53.300;6.614;2023-08-01T03:56:20;4.63;;;2.03;;
52942;SDS011;38809;53.300;6.614;2023-08-01T03:58:46;3.47;;;1.90;;
52942;SDS011;38809;53.300;6.614;2023-08-01T04:01:12;4.93;;;2.42;;
52942;SDS011;38809;53.300;6.614;2023-08-01T04:03:38;3.95;;;2.10;;
52942;SDS011;38809;53.300;6.614;2023-08-01T04:06:03;4.80;;;2.05;;
52942;SDS011;38809;53.300;6.614;2023-08-01T04:08:29;4.50;;;2.10;;
52942;SDS011;38809;53.300;6.614;2023-08-01T04:10:55;4.82;;;2.17;;
52942;SDS011;38809;53.300;6.614;2023-08-01T04:13:20;4.05;;;2.00;;
52942;SDS011;38809;53.300;6.614;2023-08-01T04:15:46;4.68;;;1.90;;
52942;SDS011;38809;53.300;6.614;2023-08-01T04:20:38;4.75;;;2.10;;
52942;SDS011;38809;53.300;6.614;2023-08-01T04:23:04;5.63;;;1.90;;
52942;SDS011;38809;53.300;6.614;2023-08-01T04:25:30;4.90;;;2.50;;
52942;SDS011;38809;53.300;6.614;2023-08-01T04:27:55;5.75;;;1.95;;
52942;SDS011;38809;53.300;6.614;2023-08-01T04:30:21;5.55;;;2.00;;
52942;SDS011;38809;53.300;6.614;2023-08-01T04:32:47;4.28;;;1.98;;
52942;SDS011;38809;53.300;6.614;2023-08-01T04:35:12;6.50;;;2.10;;
52942;SDS011;38809;53.300;6.614;2023-08-01T04:37:38;6.28;;;2.03;;
52942;SDS011;38809;53.300;6.614;2023-08-01T04:40:03;5.60;;;1.70;;
52942;SDS011;38809;53.300;6.614;2023-08-01T04:42:30;4.57;;;2.13;;
52942;SDS011;38809;53.300;6.614;2023-08-01T04:44:55;3.53;;;1.95;;
52942;SDS011;38809;53.300;6.614;2023-08-01T04:47:21;2.42;;;1.48;;
52942;SDS011;38809;53.300;6.614;2023-08-01T04:49:46;3.38;;;1.55;;
52942;SDS011;38809;53.300;6.614;2023-08-01T04:52:12;5.05;;;1.85;;
52942;SDS011;38809;53.300;6.614;2023-08-01T04:54:38;5.53;;;1.95;;
52942;SDS011;38809;53.300;6.614;2023-08-01T04:57:04;4.13;;;1.80;;
52942;SDS011;38809;53.300;6.614;2023-08-01T04:59:30;4.25;;;1.10;;
52942;SDS011;38809;53.300;6.614;2023-08-01T05:01:55;3.10;;;1.33;;
52942;SDS011;38809;53.300;6.614;2023-08-01T05:04:21;3.17;;;1.10;;
52942;SDS011;38809;53.300;6.614;2023-08-01T05:06:47;3.35;;;1.30;;
52942;SDS011;38809;53.300;6.614;2023-08-01T05:09:12;6.40;;;1.63;;
52942;SDS011;38809;53.300;6.614;2023-08-01T05:11:38;4.68;;;1.60;;
52942;SDS011;38809;53.300;6.614;2023-08-01T05:14:04;4.88;;;1.75;;
52942;SDS011;38809;53.300;6.614;2023-08-01T05:16:30;3.38;;;1.35;;
52942;SDS011;38809;53.300;6.614;2023-08-01T05:18:56;5.03;;;1.88;;
52942;SDS011;38809;53.300;6.614;2023-08-01T05:21:22;4.45;;;1.60;;
52942;SDS011;38809;53.300;6.614;2023-08-01T05:23:47;4.47;;;1.52;;
52942;SDS011;38809;53.300;6.614;2023-08-01T05:26:13;5.13;;;1.42;;
52942;SDS011;38809;53.300;6.614;2023-08-01T05:28:39;5.65;;;1.48;;
52942;SDS011;38809;53.300;6.614;2023-08-01T05:31:04;4.25;;;1.10;;
52942;SDS011;38809;53.300;6.614;2023-08-01T05:33:30;4.03;;;1.35;;
52942;SDS011;38809;53.300;6.614;2023-08-01T05:35:57;4.05;;;1.30;;
52942;SDS011;38809;53.300;6.614;2023-08-01T05:38:23;3.63;;;1.30;;
52942;SDS011;38809;53.300;6.614;2023-08-01T05:40:49;5.05;;;1.80;;
52942;SDS011;38809;53.300;6.614;2023-08-01T05:43:14;2.88;;;1.35;;
52942;SDS011;38809;53.300;6.614;2023-08-01T05:45:41;4.72;;;1.60;;
52942;SDS011;38809;53.300;6.614;2023-08-01T05:48:06;3.58;;;1.42;;
52942;SDS011;38809;53.300;6.614;2023-08-01T05:50:32;5.70;;;1.40;;
52942;SDS011;38809;53.300;6.614;2023-08-01T05:52:58;4.75;;;1.67;;
52942;SDS011;38809;53.300;6.614;2023-08-01T05:55:23;3.70;;;1.60;;
52942;SDS011;38809;53.300;6.614;2023-08-01T05:57:49;4.18;;;1.60;;
52942;SDS011;38809;53.300;6.614;2023-08-01T06:00:17;2.20;;;1.17;;
52942;SDS011;38809;53.300;6.614;2023-08-01T06:02:46;6.35;;;1.40;;
52942;SDS011;38809;53.300;6.614;2023-08-01T06:05:12;5.20;;;1.50;;
52942;SDS011;38809;53.300;6.614;2023-08-01T06:07:37;3.47;;;1.40;;
52942;SDS011;38809;53.300;6.614;2023-08-01T06:10:03;3.78;;;1.50;;
52942;SDS011;38809;53.300;6.614;2023-08-01T06:12:29;2.80;;;1.02;;
52942;SDS011;38809;53.300;6.614;2023-08-01T06:14:55;4.47;;;1.40;;
52942;SDS011;38809;53.300;6.614;2023-08-01T06:17:21;3.58;;;1.52;;
52942;SDS011;38809;53.300;6.614;2023-08-01T06:19:46;3.28;;;1.52;;
52942;SDS011;38809;53.300;6.614;2023-08-01T06:22:12;2.47;;;1.35;;
52942;SDS011;38809;53.300;6.614;2023-08-01T06:24:38;4.03;;;1.25;;
52942;SDS011;38809;53.300;6.614;2023-08-01T06:27:04;5.25;;;1.50;;
52942;SDS011;38809;53.300;6.614;2023-08-01T06:29:30;4.28;;;1.42;;
52942;SDS011;38809;53.300;6.614;2023-08-01T06:31:56;3.35;;;1.33;;
52942;SDS011;38809;53.300;6.614;2023-08-01T06:34:22;2.85;;;1.30;;
52942;SDS011;38809;53.300;6.614;2023-08-01T06:36:50;3.75;;;1.27;;
52942;SDS011;38809;53.300;6.614;2023-08-01T06:39:16;3.92;;;1.25;;
52942;SDS011;38809;53.300;6.614;2023-08-01T06:41:41;1.90;;;1.23;;
52942;SDS011;38809;53.300;6.614;2023-08-01T06:44:07;5.78;;;1.42;;
52942;SDS011;38809;53.300;6.614;2023-08-01T06:46:32;2.42;;;0.93;;
52942;SDS011;38809;53.300;6.614;2023-08-01T06:48:58;3.90;;;1.17;;
52942;SDS011;38809;53.300;6.614;2023-08-01T06:51:24;2.95;;;1.00;;
52942;SDS011;38809;53.300;6.614;2023-08-01T06:53:49;2.33;;;1.10;;
52942;SDS011;38809;53.300;6.614;2023-08-01T06:56:15;3.45;;;0.90;;
52942;SDS011;38809;53.300;6.614;2023-08-01T06:58:41;2.47;;;1.10;;
52942;SDS011;38809;53.300;6.614;2023-08-01T07:01:07;3.17;;;1.20;;
52942;SDS011;38809;53.300;6.614;2023-08-01T07:03:32;3.22;;;1.20;;
52942;SDS011;38809;53.300;6.614;2023-08-01T07:05:58;3.70;;;1.25;;
52942;SDS011;38809;53.300;6.614;2023-08-01T07:08:24;3.08;;;1.20;;
52942;SDS011;38809;53.300;6.614;2023-08-01T07:10:49;2.05;;;1.00;;
52942;SDS011;38809;53.300;6.614;2023-08-01T07:13:15;3.28;;;1.20;;
52942;SDS011;38809;53.300;6.614;2023-08-01T07:18:07;2.55;;;1.08;;
52942;SDS011;38809;53.300;6.614;2023-08-01T07:20:33;2.58;;;1.10;;
52942;SDS011;38809;53.300;6.614;2023-08-01T07:22:58;2.15;;;0.88;;
52942;SDS011;38809;53.300;6.614;2023-08-01T07:25:24;2.10;;;0.60;;
52942;SDS011;38809;53.300;6.614;2023-08-01T07:27:50;1.85;;;0.93;;
52942;SDS011;38809;53.300;6.614;2023-08-01T07:30:16;2.70;;;0.73;;
52942;SDS011;38809;53.300;6.614;2023-08-01T07:32:41;1.48;;;0.60;;
52942;SDS011;38809;53.300;6.614;2023-08-01T07:37:34;2.65;;;0.88;;
52942;SDS011;38809;53.300;6.614;2023-08-01T07:39:59;1.70;;;0.70;;
52942;SDS011;38809;53.300;6.614;2023-08-01T07:42:25;3.83;;;0.85;;
52942;SDS011;38809;53.300;6.614;2023-08-01T07:44:51;3.10;;;0.80;;
52942;SDS011;38809;53.300;6.614;2023-08-01T07:47:16;4.00;;;0.68;;
52942;SDS011;38809;53.300;6.614;2023-08-01T07:49:42;2.92;;;1.08;;
52942;SDS011;38809;53.300;6.614;2023-08-01T07:52:08;2.58;;;0.75;;
52942;SDS011;38809;53.300;6.614;2023-08-01T07:54:33;1.95;;;0.70;;
52942;SDS011;38809;53.300;6.614;2023-08-01T07:56:59;3.90;;;0.88;;
52942;SDS011;38809;53.300;6.614;2023-08-01T07:59:25;3.40;;;1.10;;
52942;SDS011;38809;53.300;6.614;2023-08-01T08:01:50;3.22;;;0.95;;
52942;SDS011;38809;53.300;6.614;2023-08-01T08:04:17;3.47;;;0.90;;
52942;SDS011;38809;53.300;6.614;2023-08-01T08:06:43;2.33;;;0.70;;
52942;SDS011;38809;53.300;6.614;2023-08-01T08:09:09;2.20;;;0.95;;
52942;SDS011;38809;53.300;6.614;2023-08-01T08:11:35;3.35;;;0.57;;
52942;SDS011;38809;53.300;6.614;2023-08-01T08:14:00;2.40;;;0.82;;
52942;SDS011;38809;53.300;6.614;2023-08-01T08:16:26;3.83;;;0.82;;
52942;SDS011;38809;53.300;6.614;2023-08-01T08:18:52;3.75;;;0.98;;
52942;SDS011;38809;53.300;6.614;2023-08-01T08:21:17;2.55;;;0.90;;
52942;SDS011;38809;53.300;6.614;2023-08-01T08:23:43;2.03;;;0.60;;
52942;SDS011;38809;53.300;6.614;2023-08-01T08:26:09;2.10;;;0.70;;
52942;SDS011;38809;53.300;6.614;2023-08-01T08:28:34;3.58;;;1.48;;
52942;SDS011;38809;53.300;6.614;2023-08-01T08:31:00;3.75;;;1.08;;
52942;SDS011;38809;53.300;6.614;2023-08-01T08:33:27;4.90;;;1.23;;
52942;SDS011;38809;53.300;6.614;2023-08-01T08:35:53;2.45;;;0.70;;
52942;SDS011;38809;53.300;6.614;2023-08-01T08:38:19;1.90;;;0.55;;
52942;SDS011;38809;53.300;6.614;2023-08-01T08:43:23;2.35;;;0.57;;
52942;SDS011;38809;53.300;6.614;2023-08-01T08:45:49;2.10;;;0.63;;
52942;SDS011;38809;53.300;6.614;2023-08-01T08:48:18;2.42;;;0.70;;
52942;SDS011;38809;53.300;6.614;2023-08-01T08:50:45;2.03;;;0.60;;
52942;SDS011;38809;53.300;6.614;2023-08-01T08:53:11;4.40;;;0.95;;
52942;SDS011;38809;53.300;6.614;2023-08-01T08:58:04;2.70;;;0.60;;
52942;SDS011;38809;53.300;6.614;2023-08-01T09:02:56;1.85;;;0.60;;
52942;SDS011;38809;53.300;6.614;2023-08-01T09:05:22;3.10;;;0.85;;
52942;SDS011;38809;53.300;6.614;2023-08-01T09:07:52;1.83;;;0.98;;
52942;SDS011;38809;53.300;6.614;2023-08-01T09:10:21;3.33;;;1.00;;
52942;SDS011;38809;53.300;6.614;2023-08-01T09:12:47;3.33;;;1.05;;
52942;SDS011;38809;53.300;6.614;2023-08-01T09:15:14;3.03;;;1.00;;
52942;SDS011;38809;53.300;6.614;2023-08-01T09:17:49;3.28;;;0.85;;
52942;SDS011;38809;53.300;6.614;2023-08-01T09:20:15;2.90;;;0.73;;
52942;SDS011;38809;53.300;6.614;2023-08-01T09:22:42;2.13;;;0.80;;
52942;SDS011;38809;53.300;6.614;2023-08-01T09:25:12;4.03;;;1.38;;
52942;SDS011;38809;53.300;6.614;2023-08-01T09:27:38;3.53;;;0.80;;
52942;SDS011;38809;53.300;6.614;2023-08-01T09:30:11;2.75;;;0.68;;
52942;SDS011;38809;53.300;6.614;2023-08-01T09:32:40;1.08;;;0.50;;
52942;SDS011;38809;53.300;6.614;2023-08-01T09:35:17;2.33;;;0.60;;
52942;SDS011;38809;53.300;6.614;2023-08-01T09:37:43;1.15;;;0.40;;
52942;SDS011;38809;53.300;6.614;2023-08-01T09:40:09;3.22;;;0.95;;
52942;SDS011;38809;53.300;6.614;2023-08-01T09:42:38;3.35;;;0.70;;
52942;SDS011;38809;53.300;6.614;2023-08-01T09:45:07;1.58;;;0.60;;
52942;SDS011;38809;53.300;6.614;2023-08-01T09:47:39;2.40;;;0.73;;
52942;SDS011;38809;53.300;6.614;2023-08-01T09:50:06;3.78;;;1.00;;
52942;SDS011;38809;53.300;6.614;2023-08-01T09:52:32;2.45;;;0.60;;
52942;SDS011;38809;53.300;6.614;2023-08-01T09:57:23;3.40;;;0.95;;
52942;SDS011;38809;53.300;6.614;2023-08-01T09:59:55;2.30;;;0.57;;
52942;SDS011;38809;53.300;6.614;2023-08-01T10:02:22;2.65;;;0.70;;
52942;SDS011;38809;53.300;6.614;2023-08-01T10:04:50;2.35;;;0.80;;
52942;SDS011;38809;53.300;6.614;2023-08-01T10:07:19;2.15;;;0.63;;
52942;SDS011;38809;53.300;6.614;2023-08-01T10:09:49;1.83;;;0.70;;
52942;SDS011;38809;53.300;6.614;2023-08-01T10:12:15;2.05;;;0.63;;
52942;SDS011;38809;53.300;6.614;2023-08-01T10:14:43;1.92;;;0.65;;
52942;SDS011;38809;53.300;6.614;2023-08-01T10:17:10;2.50;;;0.52;;
52942;SDS011;38809;53.300;6.614;2023-08-01T10:19:36;2.22;;;0.75;;
52942;SDS011;38809;53.300;6.614;2023-08-01T10:22:03;1.60;;;0.70;;
52942;SDS011;38809;53.300;6.614;2023-08-01T10:24:31;2.47;;;0.60;;
52942;SDS011;38809;53.300;6.614;2023-08-01T10:27:13;4.47;;;0.90;;
52942;SDS011;38809;53.300;6.614;2023-08-01T10:29:40;2.38;;;0.95;;
52942;SDS011;38809;53.300;6.614;2023-08-01T10:32:06;4.45;;;1.33;;
52942;SDS011;38809;53.300;6.614;2023-08-01T10:34:33;3.88;;;1.20;;
52942;SDS011;38809;53.300;6.614;2023-08-01T10:36:59;3.67;;;1.20;;
52942;SDS011;38809;53.300;6.614;2023-08-01T10:42:02;6.97;;;1.47;;
52942;SDS011;38809;53.300;6.614;2023-08-01T10:44:30;5.30;;;1.48;;
52942;SDS011;38809;53.300;6.614;2023-08-01T10:47:01;2.88;;;1.10;;
52942;SDS011;38809;53.300;6.614;2023-08-01T10:49:41;2.17;;;0.85;;
52942;SDS011;38809;53.300;6.614;2023-08-01T10:54:43;3.40;;;0.90;;
52942;SDS011;38809;53.300;6.614;2023-08-01T10:57:09;4.47;;;1.20;;
52942;SDS011;38809;53.300;6.614;2023-08-01T10:59:44;4.60;;;0.98;;
52942;SDS011;38809;53.300;6.614;2023-08-01T11:02:10;4.13;;;1.08;;
52942;SDS011;38809;53.300;6.614;2023-08-01T11:04:36;9.30;;;1.48;;
52942;SDS011;38809;53.300;6.614;2023-08-01T11:07:03;2.47;;;0.73;;
52942;SDS011;38809;53.300;6.614;2023-08-01T11:09:30;2.65;;;1.10;;
52942;SDS011;38809;53.300;6.614;2023-08-01T11:11:56;2.35;;;0.80;;
52942;SDS011;38809;53.300;6.614;2023-08-01T11:14:24;2.80;;;0.80;;
52942;SDS011;38809;53.300;6.614;2023-08-01T11:16:51;2.92;;;1.08;;
52942;SDS011;38809;53.300;6.614;2023-08-01T11:19:25;3.60;;;0.90;;
52942;SDS011;38809;53.300;6.614;2023-08-01T11:21:53;2.53;;;0.70;;
52942;SDS011;38809;53.300;6.614;2023-08-01T11:24:21;3.10;;;0.95;;
52942;SDS011;38809;53.300;6.614;2023-08-01T11:26:48;2.42;;;0.73;;
52942;SDS011;38809;53.300;6.614;2023-08-01T11:29:15;4.18;;;0.85;;
52942;SDS011;38809;53.300;6.614;2023-08-01T11:31:52;3.92;;;0.80;;
52942;SDS011;38809;53.300;6.614;2023-08-01T11:34:19;3.25;;;0.60;;
52942;SDS011;38809;53.300;6.614;2023-08-01T11:36:45;2.97;;;0.98;;
52942;SDS011;38809;53.300;6.614;2023-08-01T11:39:11;3.65;;;0.95;;
52942;SDS011;38809;53.300;6.614;2023-08-01T11:41:37;2.85;;;0.68;;
52942;SDS011;38809;53.300;6.614;2023-08-01T11:44:04;4.22;;;0.82;;
52942;SDS011;38809;53.300;6.614;2023-08-01T11:46:33;2.50;;;0.73;;
52942;SDS011;38809;53.300;6.614;2023-08-01T11:49:01;2.67;;;0.77;;
52942;SDS011;38809;53.300;6.614;2023-08-01T11:51:27;2.10;;;0.70;;
52942;SDS011;38809;53.300;6.614;2023-08-01T11:56:26;2.50;;;0.70;;
52942;SDS011;38809;53.300;6.614;2023-08-01T11:58:52;2.33;;;0.73;;
52942;SDS011;38809;53.300;6.614;2023-08-01T12:01:18;3.63;;;0.60;;
52942;SDS011;38809;53.300;6.614;2023-08-01T12:03:47;3.95;;;0.82;;
52942;SDS011;38809;53.300;6.614;2023-08-01T12:06:15;3.60;;;0.60;;
52942;SDS011;38809;53.300;6.614;2023-08-01T12:08:42;2.38;;;0.80;;
52942;SDS011;38809;53.300;6.614;2023-08-01T12:16:29;3.22;;;0.57;;
52942;SDS011;38809;53.300;6.614;2023-08-01T12:18:55;2.10;;;0.68;;
52942;SDS011;38809;53.300;6.614;2023-08-01T12:21:21;2.58;;;0.70;;
52942;SDS011;38809;53.300;6.614;2023-08-01T12:23:47;2.92;;;0.73;;
52942;SDS011;38809;53.300;6.614;2023-08-01T12:26:13;3.97;;;0.75;;
52942;SDS011;38809;53.300;6.614;2023-08-01T12:28:38;2.25;;;0.73;;
52942;SDS011;38809;53.300;6.614;2023-08-01T12:31:04;2.53;;;0.82;;
52942;SDS011;38809;53.300;6.614;2023-08-01T12:33:30;2.90;;;0.82;;
52942;SDS011;38809;53.300;6.614;2023-08-01T12:35:57;3.47;;;0.95;;
52942;SDS011;38809;53.300;6.614;2023-08-01T12:38:23;1.92;;;0.60;;
52942;SDS011;38809;53.300;6.614;2023-08-01T12:40:49;2.70;;;0.85;;
52942;SDS011;38809;53.300;6.614;2023-08-01T12:43:14;2.78;;;0.70;;
52942;SDS011;38809;53.300;6.614;2023-08-01T12:45:41;2.53;;;0.70;;
52942;SDS011;38809;53.300;6.614;2023-08-01T12:48:07;6.68;;;1.10;;
52942;SDS011;38809;53.300;6.614;2023-08-01T12:50:33;2.83;;;0.80;;
52942;SDS011;38809;53.300;6.614;2023-08-01T12:52:58;3.65;;;0.85;;
52942;SDS011;38809;53.300;6.614;2023-08-01T12:55:24;2.35;;;0.93;;
52942;SDS011;38809;53.300;6.614;2023-08-01T12:57:50;3.83;;;1.10;;
52942;SDS011;38809;53.300;6.614;2023-08-01T13:00:16;3.55;;;1.00;;
52942;SDS011;38809;53.300;6.614;2023-08-01T13:05:08;3.30;;;1.10;;
52942;SDS011;38809;53.300;6.614;2023-08-01T13:07:34;3.88;;;1.00;;
52942;SDS011;38809;53.300;6.614;2023-08-01T13:10:00;3.75;;;1.00;;
52942;SDS011;38809;53.300;6.614;2023-08-01T13:14:52;3.03;;;1.05;;
52942;SDS011;38809;53.300;6.614;2023-08-01T13:17:18;4.90;;;1.17;;
52942;SDS011;38809;53.300;6.614;2023-08-01T13:19:44;4.90;;;1.00;;
52942;SDS011;38809;53.300;6.614;2023-08-01T13:22:10;4.15;;;1.30;;
52942;SDS011;38809;53.300;6.614;2023-08-01T13:24:35;4.15;;;0.88;;
52942;SDS011;38809;53.300;6.614;2023-08-01T13:27:01;2.60;;;1.00;;
52942;SDS011;38809;53.300;6.614;2023-08-01T13:29:27;2.72;;;0.70;;
52942;SDS011;38809;53.300;6.614;2023-08-01T13:31:53;4.60;;;0.80;;
52942;SDS011;38809;53.300;6.614;2023-08-01T13:34:19;2.28;;;0.60;;
52942;SDS011;38809;53.300;6.614;2023-08-01T13:36:45;3.63;;;0.93;;
52942;SDS011;38809;53.300;6.614;2023-08-01T13:39:10;2.10;;;0.80;;
52942;SDS011;38809;53.300;6.614;2023-08-01T13:41:36;2.55;;;0.90;;
52942;SDS011;38809;53.300;6.614;2023-08-01T13:44:02;3.83;;;0.98;;
52942;SDS011;38809;53.300;6.614;2023-08-01T13:46:27;3.05;;;0.80;;
52942;SDS011;38809;53.300;6.614;2023-08-01T13:48:53;4.65;;;1.00;;
52942;SDS011;38809;53.300;6.614;2023-08-01T13:51:20;3.03;;;1.10;;
52942;SDS011;38809;53.300;6.614;2023-08-01T13:53:46;1.95;;;0.80;;
52942;SDS011;38809;53.300;6.614;2023-08-01T13:56:12;4.60;;;0.93;;
52942;SDS011;38809;53.300;6.614;2023-08-01T13:58:38;3.92;;;1.08;;
52942;SDS011;38809;53.300;6.614;2023-08-01T14:06:31;7.32;;;1.70;;
52942;SDS011;38809;53.300;6.614;2023-08-01T14:08:49;2.83;;;1.17;;
52942;SDS011;38809;53.300;6.614;2023-08-01T14:11:16;2.03;;;0.70;;
52942;SDS011;38809;53.300;6.614;2023-08-01T14:13:42;2.85;;;0.60;;
52942;SDS011;38809;53.300;6.614;2023-08-01T14:16:07;2.92;;;0.70;;
52942;SDS011;38809;53.300;6.614;2023-08-01T14:18:33;3.65;;;0.63;;
52942;SDS011;38809;53.300;6.614;2023-08-01T14:20:59;3.08;;;0.90;;
52942;SDS011;38809;53.300;6.614;2023-08-01T14:23:24;4.55;;;0.68;;
52942;SDS011;38809;53.300;6.614;2023-08-01T14:25:52;1.80;;;0.80;;
52942;SDS011;38809;53.300;6.614;2023-08-01T14:28:18;3.72;;;0.95;;
52942;SDS011;38809;53.300;6.614;2023-08-01T14:30:43;3.30;;;0.85;;
52942;SDS011;38809;53.300;6.614;2023-08-01T14:33:09;2.20;;;0.68;;
52942;SDS011;38809;53.300;6.614;2023-08-01T14:35:35;3.63;;;0.70;;
52942;SDS011;38809;53.300;6.614;2023-08-01T14:38:01;3.53;;;0.75;;
52942;SDS011;38809;53.300;6.614;2023-08-01T14:40:28;2.60;;;0.68;;
52942;SDS011;38809;53.300;6.614;2023-08-01T14:42:54;1.42;;;0.50;;
52942;SDS011;38809;53.300;6.614;2023-08-01T14:45:20;2.15;;;0.60;;
52942;SDS011;38809;53.300;6.614;2023-08-01T14:47:46;3.03;;;0.70;;
52942;SDS011;38809;53.300;6.614;2023-08-01T14:50:13;2.35;;;0.88;;
52942;SDS011;38809;53.300;6.614;2023-08-01T14:52:39;1.73;;;0.60;;
52942;SDS011;38809;53.300;6.614;2023-08-01T14:55:06;4.32;;;1.10;;
52942;SDS011;38809;53.300;6.614;2023-08-01T14:59:58;2.42;;;0.70;;
52942;SDS011;38809;53.300;6.614;2023-08-01T15:02:24;1.73;;;0.88;;
52942;SDS011;38809;53.300;6.614;2023-08-01T15:04:50;1.23;;;0.60;;
52942;SDS011;38809;53.300;6.614;2023-08-01T15:07:17;2.38;;;0.70;;
52942;SDS011;38809;53.300;6.614;2023-08-01T15:09:43;1.55;;;0.47;;
52942;SDS011;38809;53.300;6.614;2023-08-01T15:12:09;3.85;;;0.77;;
52942;SDS011;38809;53.300;6.614;2023-08-01T15:14:36;3.28;;;0.88;;
52942;SDS011;38809;53.300;6.614;2023-08-01T15:17:02;1.88;;;0.50;;
52942;SDS011;38809;53.300;6.614;2023-08-01T15:21:53;3.50;;;1.13;;
52942;SDS011;38809;53.300;6.614;2023-08-01T15:24:19;1.83;;;0.80;;
52942;SDS011;38809;53.300;6.614;2023-08-01T15:26:45;3.08;;;0.70;;
52942;SDS011;38809;53.300;6.614;2023-08-01T15:29:10;3.35;;;0.85;;
52942;SDS011;38809;53.300;6.614;2023-08-01T15:31:36;2.45;;;0.77;;
52942;SDS011;38809;53.300;6.614;2023-08-01T15:34:02;1.73;;;0.70;;